sensor_id;sensor_type;location;lat;lon;timestamp;pressure;altitude;pressure_sealevel;temperature;humidity
56928;BME280;60850;52.502;13.426;2023-01-08T00:01:12;100572.25;;;7.69;100.00
56928;BME280;60850;52.502;13.426;2023-01-08T00:03:49;100570.50;;;7.66;100.00
56928;BME280;60850;52.502;13.426;2023-01-08T00:06:17;100560.72;;;7.70;100.00
56928;BME280;60850;52.502;13.426;2023-01-08T00:08:46;100560.72;;;7.70;100.00
56928;BME280;60850;52.502;13.426;2023-01-08T00:11:13;100558.06;;;7.70;100.00
56928;BME280;60850;52.502;13.426;2023-01-08T00:13:40;100557.19;;;7.69;100.00
56928;BME280;60850;52.502;13.426;2023-01-08T00:16:12;100558.09;;;7.67;100.00
56928;BME280;60850;52.502;13.426;2023-01-08T00:18:40;100544.91;;;7.64;100.00
56928;BME280;60850;52.502;13.426;2023-01-08T00:21:08;100552.06;;;7.59;100.00
56928;BME280;60850;52.502;13.426;2023-01-08T00:23:36;100559.91;;;7.65;100.00
56928;BME280;60850;52.502;13.426;2023-01-08T00:26:05;100540.56;;;7.58;100.00
56928;BME280;60850;52.502;13.426;2023-01-08T00:28:33;100538.81;;;7.57;100.00
56928;BME280;60850;52.502;13.426;2023-01-08T00:31:02;100548.47;;;7.63;100.00
56928;BME280;60850;52.502;13.426;2023-01-08T00:33:29;100542.25;;;7.64;100.00
56928;BME280;60850;52.502;13.426;2023-01-08T00:35:56;100534.25;;;7.65;100.00
56928;BME280;60850;52.502;13.426;2023-01-08T00:38:26;100539.72;;;7.56;100.00
56928;BME280;60850;52.502;13.426;2023-01-08T00:40:54;100528.31;;;7.51;100.00
56928;BME280;60850;52.502;13.426;2023-01-08T00:43:21;100528.31;;;7.51;100.00
56928;BME280;60850;52.502;13.426;2023-01-08T00:45:48;100524.06;;;7.42;100.00
56928;BME280;60850;52.502;13.426;2023-01-08T00:48:16;100509.06;;;7.40;100.00
56928;BME280;60850;52.502;13.426;2023-01-08T00:50:43;100504.66;;;7.40;100.00
56928;BME280;60850;52.502;13.426;2023-01-08T00:53:11;100515.34;;;7.34;100.00
56928;BME280;60850;52.502;13.426;2023-01-08T00:55:39;100505.63;;;7.35;100.00
56928;BME280;60850;52.502;13.426;2023-01-08T00:58:06;100503.88;;;7.34;100.00
56928;BME280;60850;52.502;13.426;2023-01-08T01:00:33;100505.66;;;7.32;100.00
56928;BME280;60850;52.502;13.426;2023-01-08T01:03:01;100509.28;;;7.28;100.00
56928;BME280;60850;52.502;13.426;2023-01-08T01:05:28;100510.28;;;7.21;100.00
56928;BME280;60850;52.502;13.426;2023-01-08T01:07:55;100505.78;;;7.24;100.00
56928;BME280;60850;52.502;13.426;2023-01-08T01:10:23;100489.06;;;7.21;100.00
56928;BME280;60850;52.502;13.426;2023-01-08T01:12:51;100493.66;;;7.09;100.00
56928;BME280;60850;52.502;13.426;2023-01-08T01:15:19;100496.28;;;7.11;100.00
56928;BME280;60850;52.502;13.426;2023-01-08T01:17:46;100492.78;;;7.09;100.00
56928;BME280;60850;52.502;13.426;2023-01-08T01:20:14;100494.59;;;7.07;100.00
56928;BME280;60850;52.502;13.426;2023-01-08T01:22:42;100492.84;;;7.04;100.00
56928;BME280;60850;52.502;13.426;2023-01-08T01:25:09;100498.16;;;7.06;100.00
56928;BME280;60850;52.502;13.426;2023-01-08T01:27:37;100496.50;;;6.97;100.00
56928;BME280;60850;52.502;13.426;2023-01-08T01:30:07;100502.69;;;6.96;100.00
56928;BME280;60850;52.502;13.426;2023-01-08T01:32:34;100489.44;;;6.98;100.00
56928;BME280;60850;52.502;13.426;2023-01-08T01:35:02;100478.94;;;6.90;100.00
56928;BME280;60850;52.502;13.426;2023-01-08T01:37:29;100485.22;;;6.86;100.00
56928;BME280;60850;52.502;13.426;2023-01-08T01:39:56;100478.28;;;6.77;100.00
56928;BME280;60850;52.502;13.426;2023-01-08T01:42:23;100478.25;;;6.79;100.00
56928;BME280;60850;52.502;13.426;2023-01-08T01:45:18;100488.88;;;6.76;100.00
56928;BME280;60850;52.502;13.426;2023-01-08T01:47:50;100492.50;;;6.72;100.00
56928;BME280;60850;52.502;13.426;2023-01-08T01:50:21;100479.16;;;6.76;100.00
56928;BME280;60850;52.502;13.426;2023-01-08T01:52:54;100482.75;;;6.74;100.00
56928;BME280;60850;52.502;13.426;2023-01-08T01:55:25;100475.66;;;6.74;100.00
56928;BME280;60850;52.502;13.426;2023-01-08T01:57:59;100455.47;;;6.67;100.00
56928;BME280;60850;52.502;13.426;2023-01-08T02:00:28;100455.66;;;6.53;100.00
56928;BME280;60850;52.502;13.426;2023-01-08T02:02:56;100462.78;;;6.48;100.00
56928;BME280;60850;52.502;13.426;2023-01-08T02:05:26;100472.59;;;6.43;100.00
56928;BME280;60850;52.502;13.426;2023-01-08T02:08:01;100470.84;;;6.41;100.00
56928;BME280;60850;52.502;13.426;2023-01-08T02:10:36;100462.03;;;6.42;100.00
56928;BME280;60850;52.502;13.426;2023-01-08T02:13:10;100460.38;;;6.35;100.00
56928;BME280;60850;52.502;13.426;2023-01-08T02:15:46;100452.41;;;6.36;100.00
56928;BME280;60850;52.502;13.426;2023-01-08T02:18:18;100450.66;;;6.35;100.00
56928;BME280;60850;52.502;13.426;2023-01-08T02:20:50;100450.59;;;6.38;100.00
56928;BME280;60850;52.502;13.426;2023-01-08T02:23:26;100443.63;;;6.31;100.00
56928;BME280;60850;52.502;13.426;2023-01-08T02:26:08;100439.25;;;6.30;100.00
56928;BME280;60850;52.502;13.426;2023-01-08T02:28:40;100420.84;;;6.21;100.00
56928;BME280;60850;52.502;13.426;2023-01-08T02:31:08;100410.25;;;6.19;100.00
56928;BME280;60850;52.502;13.426;2023-01-08T02:33:35;100413.78;;;6.20;100.00
56928;BME280;60850;52.502;13.426;2023-01-08T02:36:36;100418.22;;;6.18;100.00
56928;BME280;60850;52.502;13.426;2023-01-08T02:39:14;100425.34;;;6.13;100.00
56928;BME280;60850;52.502;13.426;2023-01-08T02:41:53;100424.50;;;6.11;100.00
56928;BME280;60850;52.502;13.426;2023-01-08T02:44:29;100420.22;;;6.02;100.00
56928;BME280;60850;52.502;13.426;2023-01-08T02:46:59;100418.47;;;5.98;100.00
56928;BME280;60850;52.502;13.426;2023-01-08T02:49:30;100410.53;;;5.98;100.00
56928;BME280;60850;52.502;13.426;2023-01-08T02:51:59;100400.88;;;5.97;100.00
56928;BME280;60850;52.502;13.426;2023-01-08T02:54:33;100400.03;;;5.93;100.00
56928;BME280;60850;52.502;13.426;2023-01-08T02:57:05;100405.31;;;5.90;100.00
56928;BME280;60850;52.502;13.426;2023-01-08T02:59:34;100401.81;;;5.90;100.00
56928;BME280;60850;52.502;13.426;2023-01-08T03:02:02;100386.84;;;5.87;100.00
56928;BME280;60850;52.502;13.426;2023-01-08T03:04:35;100383.31;;;5.88;100.00
56928;BME280;60850;52.502;13.426;2023-01-08T03:07:03;100386.88;;;5.86;100.00
56928;BME280;60850;52.502;13.426;2023-01-08T03:09:30;100380.69;;;5.87;100.00
56928;BME280;60850;52.502;13.426;2023-01-08T03:12:01;100376.22;;;5.92;100.00
56928;BME280;60850;52.502;13.426;2023-01-08T03:14:36;100377.19;;;5.86;100.00
56928;BME280;60850;52.502;13.426;2023-01-08T03:17:07;100384.22;;;5.87;100.00
56928;BME280;60850;52.502;13.426;2023-01-08T03:19:40;100380.72;;;5.85;100.00
56928;BME280;60850;52.502;13.426;2023-01-08T03:22:10;100387.84;;;5.78;100.00
56928;BME280;60850;52.502;13.426;2023-01-08T03:24:40;100381.63;;;5.81;100.00
56928;BME280;60850;52.502;13.426;2023-01-08T03:27:09;100378.06;;;5.87;100.00
56928;BME280;60850;52.502;13.426;2023-01-08T03:29:41;100372.59;;;5.99;100.00
56928;BME280;60850;52.502;13.426;2023-01-08T03:32:10;100365.47;;;6.04;100.00
56928;BME280;60850;52.502;13.426;2023-01-08T03:34:41;100365.56;;;5.99;100.00
56928;BME280;60850;52.502;13.426;2023-01-08T03:37:10;100363.91;;;5.91;100.00
56928;BME280;60850;52.502;13.426;2023-01-08T03:39:41;100355.13;;;5.87;100.00
56928;BME280;60850;52.502;13.426;2023-01-08T03:42:11;100359.50;;;5.88;100.00
56928;BME280;60850;52.502;13.426;2023-01-08T03:44:41;100355.97;;;5.89;100.00
56928;BME280;60850;52.502;13.426;2023-01-08T03:47:09;100355.13;;;5.87;100.00
56928;BME280;60850;52.502;13.426;2023-01-08T03:49:37;100349.84;;;5.86;100.00
56928;BME280;60850;52.502;13.426;2023-01-08T03:52:06;100353.44;;;5.80;100.00
56928;BME280;60850;52.502;13.426;2023-01-08T03:54:35;100365.75;;;5.83;100.00
56928;BME280;60850;52.502;13.426;2023-01-08T03:57:02;100371.06;;;5.81;100.00
56928;BME280;60850;52.502;13.426;2023-01-08T03:59:29;100370.22;;;5.79;100.00
56928;BME280;60850;52.502;13.426;2023-01-08T04:01:58;100372.03;;;5.74;100.00
56928;BME280;60850;52.502;13.426;2023-01-08T04:04:25;100363.16;;;5.76;100.00
56928;BME280;60850;52.502;13.426;2023-01-08T04:06:52;100370.16;;;5.82;100.00
56928;BME280;60850;52.502;13.426;2023-01-08T04:09:19;100362.25;;;5.81;100.00
56928;BME280;60850;52.502;13.426;2023-01-08T04:11:46;100359.63;;;5.79;100.00
56928;BME280;60850;52.502;13.426;2023-01-08T04:14:13;100368.44;;;5.79;100.00
56928;BME280;60850;52.502;13.426;2023-01-08T04:16:40;100372.84;;;5.79;100.00
56928;BME280;60850;52.502;13.426;2023-01-08T04:19:09;100357.88;;;5.76;100.00
56928;BME280;60850;52.502;13.426;2023-01-08T04:21:36;100360.50;;;5.79;100.00
56928;BME280;60850;52.502;13.426;2023-01-08T04:24:03;100363.19;;;5.75;100.00
56928;BME280;60850;52.502;13.426;2023-01-08T04:26:31;100364.09;;;5.74;100.00
56928;BME280;60850;52.502;13.426;2023-01-08T04:28:58;100362.25;;;5.81;100.00
56928;BME280;60850;52.502;13.426;2023-01-08T04:31:27;100367.47;;;5.87;100.00
56928;BME280;60850;52.502;13.426;2023-01-08T04:33:54;100349.75;;;5.90;100.00
56928;BME280;60850;52.502;13.426;2023-01-08T04:36:22;100346.34;;;5.85;100.00
56928;BME280;60850;52.502;13.426;2023-01-08T04:38:50;100341.03;;;5.84;100.00
56928;BME280;60850;52.502;13.426;2023-01-08T04:41:16;100327.91;;;5.79;100.00
56928;BME280;60850;52.502;13.426;2023-01-08T04:43:44;100322.53;;;5.82;100.00
56928;BME280;60850;52.502;13.426;2023-01-08T04:46:11;100320.84;;;5.79;100.00
56928;BME280;60850;52.502;13.426;2023-01-08T04:48:38;100325.25;;;5.77;100.00
56928;BME280;60850;52.502;13.426;2023-01-08T04:51:05;100328.78;;;5.76;100.00
56928;BME280;60850;52.502;13.426;2023-01-08T04:53:35;100314.63;;;5.82;100.00
56928;BME280;60850;52.502;13.426;2023-01-08T04:56:04;100318.16;;;5.81;100.00
56928;BME280;60850;52.502;13.426;2023-01-08T04:58:32;100326.09;;;5.81;100.00
56928;BME280;60850;52.502;13.426;2023-01-08T05:01:00;100327.91;;;5.79;100.00
56928;BME280;60850;52.502;13.426;2023-01-08T05:03:27;100323.44;;;5.81;100.00
56928;BME280;60850;52.502;13.426;2023-01-08T05:05:54;100317.31;;;5.79;100.00
56928;BME280;60850;52.502;13.426;2023-01-08T05:08:21;100320.72;;;5.87;100.00
56928;BME280;60850;52.502;13.426;2023-01-08T05:10:49;100313.59;;;5.94;100.00
56928;BME280;60850;52.502;13.426;2023-01-08T05:13:17;100306.44;;;6.02;100.00
56928;BME280;60850;52.502;13.426;2023-01-08T05:15:44;100319.47;;;6.13;100.00
56928;BME280;60850;52.502;13.426;2023-01-08T05:18:11;100314.97;;;6.21;100.00
56928;BME280;60850;52.502;13.426;2023-01-08T05:20:38;100306.84;;;6.31;100.00
56928;BME280;60850;52.502;13.426;2023-01-08T05:23:05;100307.75;;;6.30;100.00
56928;BME280;60850;52.502;13.426;2023-01-08T05:25:32;100303.28;;;6.32;100.00
56928;BME280;60850;52.502;13.426;2023-01-08T05:28:00;100299.91;;;6.24;100.00
56928;BME280;60850;52.502;13.426;2023-01-08T05:30:27;100297.31;;;6.20;100.00
56928;BME280;60850;52.502;13.426;2023-01-08T05:32:54;100294.72;;;6.17;100.00
56928;BME280;60850;52.502;13.426;2023-01-08T05:35:21;100296.53;;;6.15;100.00
56928;BME280;60850;52.502;13.426;2023-01-08T05:37:48;100296.56;;;6.13;100.00
56928;BME280;60850;52.502;13.426;2023-01-08T05:40:15;100293.78;;;6.21;100.00
56928;BME280;60850;52.502;13.426;2023-01-08T05:42:43;100299.88;;;6.27;100.00
56928;BME280;60850;52.502;13.426;2023-01-08T05:45:11;100295.41;;;6.29;100.00
56928;BME280;60850;52.502;13.426;2023-01-08T05:47:40;100292.53;;;6.43;100.00
56928;BME280;60850;52.502;13.426;2023-01-08T05:50:08;100291.56;;;6.47;100.00
56928;BME280;60850;52.502;13.426;2023-01-08T05:52:35;100286.09;;;6.58;100.00
56928;BME280;60850;52.502;13.426;2023-01-08T05:55:03;100279.94;;;6.57;100.00
56928;BME280;60850;52.502;13.426;2023-01-08T05:57:30;100285.06;;;6.67;100.00
56928;BME280;60850;52.502;13.426;2023-01-08T05:59:57;100277.19;;;6.64;100.00
56928;BME280;60850;52.502;13.426;2023-01-08T06:02:25;100278.91;;;6.66;100.00
56928;BME280;60850;52.502;13.426;2023-01-08T06:04:52;100277.81;;;6.76;100.00
56928;BME280;60850;52.502;13.426;2023-01-08T06:07:19;100278.50;;;6.87;100.00
56928;BME280;60850;52.502;13.426;2023-01-08T06:09:46;100273.00;;;6.97;100.00
56928;BME280;60850;52.502;13.426;2023-01-08T06:12:13;100268.66;;;6.94;100.00
56928;BME280;60850;52.502;13.426;2023-01-08T06:14:40;100270.31;;;7.00;100.00
56928;BME280;60850;52.502;13.426;2023-01-08T06:17:07;100260.47;;;7.06;100.00
56928;BME280;60850;52.502;13.426;2023-01-08T06:19:36;100266.53;;;7.13;100.00
56928;BME280;60850;52.502;13.426;2023-01-08T06:22:04;100254.84;;;7.22;100.00
56928;BME280;60850;52.502;13.426;2023-01-08T06:24:31;100259.16;;;7.27;100.00
56928;BME280;60850;52.502;13.426;2023-01-08T06:26:58;100254.84;;;7.22;100.00
56928;BME280;60850;52.502;13.426;2023-01-08T06:29:25;100255.06;;;7.11;100.00
56928;BME280;60850;52.502;13.426;2023-01-08T06:31:52;100260.50;;;7.05;100.00
56928;BME280;60850;52.502;13.426;2023-01-08T06:34:19;100256.03;;;7.07;100.00
56928;BME280;60850;52.502;13.426;2023-01-08T06:36:47;100253.66;;;6.93;100.00
56928;BME280;60850;52.502;13.426;2023-01-08T06:39:16;100257.16;;;6.95;100.00
56928;BME280;60850;52.502;13.426;2023-01-08T06:41:43;100256.25;;;6.98;100.00
56928;BME280;60850;52.502;13.426;2023-01-08T06:44:10;100250.81;;;7.02;100.00
56928;BME280;60850;52.502;13.426;2023-01-08T06:46:37;100253.34;;;7.08;100.00
56928;BME280;60850;52.502;13.426;2023-01-08T06:49:05;100247.16;;;7.09;100.00
56928;BME280;60850;52.502;13.426;2023-01-08T06:51:32;100253.16;;;7.19;100.00
56928;BME280;60850;52.502;13.426;2023-01-08T06:54:01;100251.38;;;7.20;100.00
56928;BME280;60850;52.502;13.426;2023-01-08T06:56:28;100260.09;;;7.25;100.00
56928;BME280;60850;52.502;13.426;2023-01-08T06:58:55;100255.53;;;7.31;100.00
56928;BME280;60850;52.502;13.426;2023-01-08T07:01:22;100253.66;;;7.36;100.00
56928;BME280;60850;52.502;13.426;2023-01-08T07:03:49;100259.66;;;7.44;100.00
56928;BME280;60850;52.502;13.426;2023-01-08T07:06:18;100252.41;;;7.53;100.00
56928;BME280;60850;52.502;13.426;2023-01-08T07:08:45;100253.38;;;7.50;100.00
56928;BME280;60850;52.502;13.426;2023-01-08T07:11:14;100253.16;;;7.59;100.00
56928;BME280;60850;52.502;13.426;2023-01-08T07:13:41;100249.47;;;7.66;100.00
56928;BME280;60850;52.502;13.426;2023-01-08T07:16:10;100243.22;;;7.69;100.00
56928;BME280;60850;52.502;13.426;2023-01-08T07:18:38;100252.84;;;7.73;100.00
56928;BME280;60850;52.502;13.426;2023-01-08T07:21:07;100252.78;;;7.76;100.00
56928;BME280;60850;52.502;13.426;2023-01-08T07:23:34;100251.19;;;7.67;100.00
56928;BME280;60850;52.502;13.426;2023-01-08T07:26:02;100257.25;;;7.76;100.00
56928;BME280;60850;52.502;13.426;2023-01-08T07:28:30;100257.97;;;7.82;100.00
56928;BME280;60850;52.502;13.426;2023-01-08T07:31:02;100255.31;;;7.82;100.00
56928;BME280;60850;52.502;13.426;2023-01-08T07:33:29;100259.75;;;7.80;100.00
56928;BME280;60850;52.502;13.426;2023-01-08T07:35:56;100260.63;;;7.82;100.00
56928;BME280;60850;52.502;13.426;2023-01-08T07:38:23;100271.06;;;7.90;100.00
56928;BME280;60850;52.502;13.426;2023-01-08T07:40:51;100262.94;;;7.96;100.00
56928;BME280;60850;52.502;13.426;2023-01-08T07:43:18;100267.25;;;8.00;100.00
56928;BME280;60850;52.502;13.426;2023-01-08T07:45:46;100273.50;;;7.99;100.00
56928;BME280;60850;52.502;13.426;2023-01-08T07:48:13;100267.22;;;8.02;100.00
56928;BME280;60850;52.502;13.426;2023-01-08T07:50:41;100279.50;;;8.07;100.00
56928;BME280;60850;52.502;13.426;2023-01-08T07:53:09;100271.63;;;8.03;100.00
56928;BME280;60850;52.502;13.426;2023-01-08T07:55:37;100270.69;;;8.05;100.00
56928;BME280;60850;52.502;13.426;2023-01-08T07:58:08;100261.81;;;8.06;100.00
56928;BME280;60850;52.502;13.426;2023-01-08T08:00:35;100272.22;;;8.15;100.00
56928;BME280;60850;52.502;13.426;2023-01-08T08:03:05;100262.50;;;8.14;100.00
56928;BME280;60850;52.502;13.426;2023-01-08T08:05:33;100262.50;;;8.14;100.00
56928;BME280;60850;52.502;13.426;2023-01-08T08:08:00;100256.38;;;8.12;100.00
56928;BME280;60850;52.502;13.426;2023-01-08T08:10:28;100248.25;;;8.18;100.00
56928;BME280;60850;52.502;13.426;2023-01-08T08:12:55;100249.13;;;8.17;100.00
56928;BME280;60850;52.502;13.426;2023-01-08T08:15:22;100240.19;;;8.21;100.00
56928;BME280;60850;52.502;13.426;2023-01-08T08:17:49;100245.41;;;8.24;100.00
56928;BME280;60850;52.502;13.426;2023-01-08T08:20:17;100255.13;;;8.27;100.00
56928;BME280;60850;52.502;13.426;2023-01-08T08:22:44;100266.47;;;8.34;100.00
56928;BME280;60850;52.502;13.426;2023-01-08T08:25:12;100263.69;;;8.38;100.00
56928;BME280;60850;52.502;13.426;2023-01-08T08:27:42;100256.75;;;8.33;100.00
56928;BME280;60850;52.502;13.426;2023-01-08T08:30:10;100254.00;;;8.37;100.00
56928;BME280;60850;52.502;13.426;2023-01-08T08:32:38;100254.03;;;8.36;100.00
56928;BME280;60850;52.502;13.426;2023-01-08T08:35:08;100248.00;;;8.27;100.00
56928;BME280;60850;52.502;13.426;2023-01-08T08:37:36;100238.16;;;8.33;100.00
56928;BME280;60850;52.502;13.426;2023-01-08T08:40:06;100231.75;;;8.41;100.00
56928;BME280;60850;52.502;13.426;2023-01-08T08:42:33;100225.34;;;8.50;100.00
56928;BME280;60850;52.502;13.426;2023-01-08T08:45:01;100232.22;;;8.57;100.00
56928;BME280;60850;52.502;13.426;2023-01-08T08:47:28;100225.94;;;8.60;100.00
56928;BME280;60850;52.502;13.426;2023-01-08T08:49:56;100220.78;;;8.55;100.00
56928;BME280;60850;52.502;13.426;2023-01-08T08:52:40;100225.78;;;8.66;100.00
56928;BME280;60850;52.502;13.426;2023-01-08T08:55:09;100224.91;;;8.65;100.00
56928;BME280;60850;52.502;13.426;2023-01-08T08:57:39;100230.88;;;8.75;100.00
56928;BME280;60850;52.502;13.426;2023-01-08T09:00:13;100239.41;;;8.86;100.00
56928;BME280;60850;52.502;13.426;2023-01-08T09:02:40;100225.41;;;8.79;100.00
56928;BME280;60850;52.502;13.426;2023-01-08T09:05:08;100224.50;;;8.80;100.00
56928;BME280;60850;52.502;13.426;2023-01-08T09:07:35;100218.09;;;8.88;100.00
56928;BME280;60850;52.502;13.426;2023-01-08T09:10:05;100209.13;;;8.92;100.00
56928;BME280;60850;52.502;13.426;2023-01-08T09:12:32;100194.97;;;8.91;100.00
56928;BME280;60850;52.502;13.426;2023-01-08T09:14:59;100199.31;;;8.94;100.00
56928;BME280;60850;52.502;13.426;2023-01-08T09:17:26;100185.91;;;8.98;100.00
56928;BME280;60850;52.502;13.426;2023-01-08T09:19:54;100177.72;;;9.06;100.00
56928;BME280;60850;52.502;13.426;2023-01-08T09:22:21;100161.41;;;9.18;100.00
56928;BME280;60850;52.502;13.426;2023-01-08T09:24:48;100180.66;;;9.26;100.00
56928;BME280;60850;52.502;13.426;2023-01-08T09:27:16;100186.56;;;9.36;100.00
56928;BME280;60850;52.502;13.426;2023-01-08T09:29:43;100186.41;;;9.41;100.00
56928;BME280;60850;52.502;13.426;2023-01-08T09:32:10;100193.25;;;9.49;100.00
56928;BME280;60850;52.502;13.426;2023-01-08T09:34:38;100212.97;;;9.42;100.00
56928;BME280;60850;52.502;13.426;2023-01-08T09:37:05;100212.97;;;9.42;100.00
56928;BME280;60850;52.502;13.426;2023-01-08T09:39:32;100222.84;;;9.39;100.00
56928;BME280;60850;52.502;13.426;2023-01-08T09:42:02;100215.88;;;9.34;100.00
56928;BME280;60850;52.502;13.426;2023-01-08T09:44:36;100208.81;;;9.33;100.00
56928;BME280;60850;52.502;13.426;2023-01-08T09:47:05;100220.66;;;9.23;100.00
56928;BME280;60850;52.502;13.426;2023-01-08T09:49:38;100223.38;;;9.20;100.00
56928;BME280;60850;52.502;13.426;2023-01-08T09:52:09;100231.47;;;9.17;100.00
56928;BME280;60850;52.502;13.426;2023-01-08T09:54:39;100235.88;;;9.18;100.00
56928;BME280;60850;52.502;13.426;2023-01-08T09:57:09;100235.94;;;9.15;100.00
56928;BME280;60850;52.502;13.426;2023-01-08T09:59:40;100229.84;;;9.12;100.00
56928;BME280;60850;52.502;13.426;2023-01-08T10:02:13;100235.03;;;9.16;100.00
56928;BME280;60850;52.502;13.426;2023-01-08T10:04:42;100229.56;;;9.21;100.00
56928;BME280;60850;52.502;13.426;2023-01-08T10:07:14;100232.09;;;9.25;100.00
56928;BME280;60850;52.502;13.426;2023-01-08T10:09:46;100217.88;;;9.26;100.00
56928;BME280;60850;52.502;13.426;2023-01-08T10:12:17;100211.69;;;9.26;100.00
56928;BME280;60850;52.502;13.426;2023-01-08T10:14:49;100210.09;;;9.20;100.00
56928;BME280;60850;52.502;13.426;2023-01-08T10:17:24;100194.88;;;9.25;100.00
56928;BME280;60850;52.502;13.426;2023-01-08T10:19:52;100202.09;;;9.20;100.00
56928;BME280;60850;52.502;13.426;2023-01-08T10:22:23;100191.28;;;9.26;100.00
56928;BME280;60850;52.502;13.426;2023-01-08T10:24:51;100189.44;;;9.28;100.00
56928;BME280;60850;52.502;13.426;2023-01-08T10:27:20;100185.84;;;9.31;100.00
56928;BME280;60850;52.502;13.426;2023-01-08T10:29:50;100188.41;;;9.34;100.00
56928;BME280;60850;52.502;13.426;2023-01-08T10:32:19;100187.41;;;9.36;100.00
56928;BME280;60850;52.502;13.426;2023-01-08T10:34:50;100184.75;;;9.36;100.00
56928;BME280;60850;52.502;13.426;2023-01-08T10:37:24;100184.56;;;9.43;100.00
56928;BME280;60850;52.502;13.426;2023-01-08T10:39:53;100178.38;;;9.42;100.00
56928;BME280;60850;52.502;13.426;2023-01-08T10:42:21;100182.72;;;9.46;100.00
56928;BME280;60850;52.502;13.426;2023-01-08T10:44:58;100177.63;;;9.39;100.00
56928;BME280;60850;52.502;13.426;2023-01-08T10:47:27;100175.72;;;9.42;100.00
56928;BME280;60850;52.502;13.426;2023-01-08T10:49:59;100182.09;;;9.36;100.00
56928;BME280;60850;52.502;13.426;2023-01-08T10:52:32;100189.25;;;9.34;100.00
56928;BME280;60850;52.502;13.426;2023-01-08T10:55:15;100190.13;;;9.35;100.00
56928;BME280;60850;52.502;13.426;2023-01-08T10:57:57;100182.94;;;9.39;100.00
56928;BME280;60850;52.502;13.426;2023-01-08T11:00:28;100170.81;;;9.28;100.00
56928;BME280;60850;52.502;13.426;2023-01-08T11:02:58;100177.88;;;9.31;100.00
56928;BME280;60850;52.502;13.426;2023-01-08T11:05:32;100173.31;;;9.34;100.00
56928;BME280;60850;52.502;13.426;2023-01-08T11:08:01;100167.22;;;9.31;100.00
56928;BME280;60850;52.502;13.426;2023-01-08T11:10:32;100162.78;;;9.30;100.00
56928;BME280;60850;52.502;13.426;2023-01-08T11:13:01;100150.72;;;9.20;100.00
56928;BME280;60850;52.502;13.426;2023-01-08T11:15:34;100141.97;;;9.16;100.00
56928;BME280;60850;52.502;13.426;2023-01-08T11:18:04;100139.81;;;9.27;100.00
56928;BME280;60850;52.502;13.426;2023-01-08T11:20:32;100146.53;;;9.41;100.00
56928;BME280;60850;52.502;13.426;2023-01-08T11:23:04;100139.22;;;9.47;100.00
56928;BME280;60850;52.502;13.426;2023-01-08T11:25:33;100138.91;;;9.56;100.00
56928;BME280;60850;52.502;13.426;2023-01-08T11:28:01;100140.63;;;9.59;100.00
56928;BME280;60850;52.502;13.426;2023-01-08T11:30:33;100127.59;;;9.50;100.00
56928;BME280;60850;52.502;13.426;2023-01-08T11:33:05;100119.81;;;9.44;100.00
56928;BME280;60850;52.502;13.426;2023-01-08T11:35:37;100108.69;;;9.31;100.00
56928;BME280;60850;52.502;13.426;2023-01-08T11:38:11;100113.59;;;9.45;100.00
56928;BME280;60850;52.502;13.426;2023-01-08T11:40:42;100112.56;;;9.49;100.00
56928;BME280;60850;52.502;13.426;2023-01-08T11:43:19;100125.09;;;9.45;100.00
56928;BME280;60850;52.502;13.426;2023-01-08T11:46:03;100131.31;;;9.44;100.00
56928;BME280;60850;52.502;13.426;2023-01-08T11:48:46;100121.22;;;9.27;100.00
56928;BME280;60850;52.502;13.426;2023-01-08T11:51:32;100118.06;;;9.15;100.00
56928;BME280;60850;52.502;13.426;2023-01-08T11:54:06;100111.69;;;9.20;100.00
56928;BME280;60850;52.502;13.426;2023-01-08T11:56:49;100112.50;;;9.22;100.00
56928;BME280;60850;52.502;13.426;2023-01-08T11:59:26;100113.53;;;9.18;100.00
56928;BME280;60850;52.502;13.426;2023-01-08T12:02:05;100107.03;;;9.27;100.00
56928;BME280;60850;52.502;13.426;2023-01-08T12:05:00;100098.06;;;9.31;100.00
56928;BME280;60850;52.502;13.426;2023-01-08T12:07:35;100082.78;;;9.38;100.00
56928;BME280;60850;52.502;13.426;2023-01-08T12:10:13;100086.75;;;9.24;100.00
56928;BME280;60850;52.502;13.426;2023-01-08T12:12:51;100086.56;;;9.30;100.00
56928;BME280;60850;52.502;13.426;2023-01-08T12:15:28;100089.97;;;9.34;100.00
56928;BME280;60850;52.502;13.426;2023-01-08T12:18:18;100080.06;;;9.39;100.00
56928;BME280;60850;52.502;13.426;2023-01-08T12:20:49;100083.41;;;9.44;100.00
56928;BME280;60850;52.502;13.426;2023-01-08T12:23:29;100078.31;;;9.38;100.00
56928;BME280;60850;52.502;13.426;2023-01-08T12:26:08;100077.41;;;9.39;100.00
56928;BME280;60850;52.502;13.426;2023-01-08T12:28:48;100078.31;;;9.38;100.00
56928;BME280;60850;52.502;13.426;2023-01-08T12:31:29;100064.25;;;9.34;100.00
56928;BME280;60850;52.502;13.426;2023-01-08T12:34:05;100058.34;;;9.53;100.00
56928;BME280;60850;52.502;13.426;2023-01-08T12:36:37;100057.03;;;9.64;100.00
56928;BME280;60850;52.502;13.426;2023-01-08T12:39:09;100067.84;;;9.60;100.00
56928;BME280;60850;52.502;13.426;2023-01-08T12:41:38;100069.66;;;9.59;100.00
56928;BME280;60850;52.502;13.426;2023-01-08T12:44:09;100080.16;;;9.62;100.00
56928;BME280;60850;52.502;13.426;2023-01-08T12:46:40;100066.91;;;9.61;100.00
56928;BME280;60850;52.502;13.426;2023-01-08T12:49:14;100064.47;;;9.55;100.00
56928;BME280;60850;52.502;13.426;2023-01-08T12:51:53;100068.91;;;9.54;100.00
56928;BME280;60850;52.502;13.426;2023-01-08T12:54:28;100072.50;;;9.53;100.00